createdAt,value
2023-02-06T00:09:51.307Z,1.11
2023-02-06T02:02:51.125Z,1.21
2023-02-06T02:24:50.768Z,1.28
2023-02-06T06:32:52.377Z,1.68
2023-02-06T06:33:53.068Z,1.51
2023-02-06T06:34:52.361Z,1.18
2023-02-06T06:35:52.359Z,1.09
2023-02-06T06:36:52.376Z,1.46
2023-02-06T06:37:52.376Z,2.07
2023-02-06T06:38:52.345Z,1.42
2023-02-06T06:39:52.328Z,1.97
2023-02-06T06:40:52.350Z,1.83
2023-02-06T06:41:52.341Z,1.50
2023-02-06T06:42:52.311Z,1.83
2023-02-06T06:43:52.316Z,1.74
2023-02-06T06:44:52.317Z,1.79
2023-02-06T06:45:52.321Z,1.51
2023-02-06T06:46:52.375Z,2.13
2023-02-06T06:47:52.299Z,1.86
2023-02-06T06:48:52.361Z,1.52
2023-02-06T06:50:52.374Z,0.77
2023-02-06T06:51:52.300Z,1.99
2023-02-06T06:52:52.296Z,2.15
2023-02-06T06:53:52.409Z,3.09
2023-02-06T06:54:52.689Z,2.10
2023-02-06T06:55:52.414Z,2.55
2023-02-06T06:56:52.231Z,2.60
2023-02-06T06:57:52.159Z,3.01
2023-02-06T06:58:52.146Z,2.64
2023-02-06T06:59:52.155Z,2.85
2023-02-06T07:00:52.380Z,2.63
2023-02-06T07:01:52.166Z,1.53
2023-02-06T07:02:52.343Z,2.22
2023-02-06T07:03:52.144Z,1.71
2023-02-06T07:05:53.301Z,1.46
2023-02-06T09:32:50.589Z,2.91
2023-02-06T09:33:50.567Z,2.71
2023-02-06T09:34:50.575Z,2.30
2023-02-06T09:35:50.545Z,1.99
2023-02-06T09:36:50.554Z,2.25
2023-02-06T09:37:50.556Z,2.09
2023-02-06T09:38:50.551Z,2.05
2023-02-06T09:39:50.574Z,2.06
2023-02-06T09:40:50.483Z,1.56
2023-02-06T09:41:50.497Z,1.86
2023-02-06T09:42:50.495Z,1.13
2023-02-06T09:43:50.493Z,1.49
2023-02-06T09:44:50.449Z,1.84
2023-02-06T09:45:50.411Z,1.89
2023-02-06T09:46:50.429Z,1.70
2023-02-06T09:47:50.436Z,2.26
2023-02-06T09:48:50.473Z,1.51
2023-02-06T09:49:50.388Z,2.49
2023-02-06T09:50:50.381Z,1.50
2023-02-06T09:51:50.368Z,2.20
2023-02-06T09:53:50.383Z,2.35
2023-02-06T09:54:50.442Z,1.67
2023-02-06T09:55:50.272Z,2.56
2023-02-06T09:56:50.432Z,2.48
2023-02-06T09:57:50.283Z,2.57
2023-02-06T10:00:50.352Z,2.45
2023-02-06T10:01:50.333Z,3.02
2023-02-06T10:02:50.180Z,2.49
2023-02-06T10:03:50.184Z,2.52
2023-02-06T10:04:50.221Z,2.26
2023-02-06T10:05:50.203Z,2.75
2023-02-06T10:06:50.142Z,2.96
2023-02-06T10:07:50.117Z,3.65
2023-02-06T10:08:50.094Z,2.35
2023-02-06T10:09:50.403Z,3.21
2023-02-06T10:11:50.280Z,1.63
2023-02-06T10:12:50.248Z,2.40
2023-02-06T10:13:50.300Z,3.61
2023-02-06T10:14:50.289Z,3.88
2023-02-06T10:15:50.181Z,3.96
2023-02-06T10:16:50.137Z,2.09
2023-02-06T10:17:50.209Z,3.42
2023-02-06T10:18:50.233Z,3.48
2023-02-06T10:20:50.320Z,2.92
2023-02-06T10:21:50.284Z,3.19
2023-02-06T10:22:50.295Z,3.41
2023-02-06T10:23:50.405Z,2.91
2023-02-06T10:24:50.293Z,3.47
2023-02-06T10:25:50.256Z,2.55
2023-02-06T10:29:50.115Z,2.33
2023-02-06T10:30:50.118Z,3.00
2023-02-06T10:31:50.142Z,2.58
2023-02-06T10:32:50.178Z,2.10
2023-02-06T10:33:50.134Z,1.83
2023-02-06T10:37:50.744Z,1.35
2023-02-06T10:41:49.947Z,2.05
2023-02-06T11:03:49.830Z,3.99
2023-02-06T11:39:51.059Z,12.11
2023-02-06T11:41:51.100Z,18.63
2023-02-06T11:43:50.987Z,18.39
2023-02-06T11:44:51.002Z,15.87
2023-02-06T11:46:51.768Z,12.05
2023-02-06T11:47:51.036Z,15.82
2023-02-06T11:48:51.083Z,12.89
2023-02-06T11:49:51.011Z,21.88
2023-02-06T11:50:50.997Z,15.91
2023-02-06T11:51:50.961Z,21.61
2023-02-06T11:52:51.059Z,14.47
2023-02-06T11:53:50.987Z,18.53
2023-02-06T11:54:50.970Z,12.62
2023-02-06T11:55:50.951Z,17.20
2023-02-06T11:56:50.974Z,21.01
2023-02-06T11:57:51.058Z,15.18
2023-02-06T11:58:50.945Z,12.75
2023-02-06T11:59:51.053Z,15.03
2023-02-06T12:00:51.807Z,15.44
2023-02-06T12:01:51.005Z,9.04
2023-02-06T12:02:50.935Z,11.63
2023-02-06T12:03:50.957Z,11.82
2023-02-06T12:04:51.951Z,17.78
2023-02-06T12:06:51.007Z,11.01
2023-02-06T12:07:50.895Z,10.43
2023-02-06T12:08:50.948Z,15.35
2023-02-06T12:09:50.862Z,15.44
2023-02-06T12:10:50.979Z,13.22
2023-02-06T12:11:50.816Z,15.46
2023-02-06T12:12:50.858Z,16.44
2023-02-06T12:13:50.787Z,19.06
2023-02-06T12:14:50.794Z,18.32
2023-02-06T12:15:51.446Z,16.52
2023-02-06T12:16:50.848Z,17.63
2023-02-06T12:17:50.819Z,14.44
2023-02-06T12:18:50.785Z,10.75
2023-02-06T12:19:50.717Z,13.29
2023-02-06T12:20:50.724Z,15.10
2023-02-06T12:21:50.748Z,15.44
2023-02-06T12:22:50.741Z,15.07
2023-02-06T12:23:50.683Z,12.22
2023-02-06T12:24:50.656Z,14.58
2023-02-06T12:25:50.740Z,12.04
2023-02-06T12:26:50.709Z,14.22
2023-02-06T12:27:50.649Z,14.09
2023-02-06T12:28:50.579Z,15.91
2023-02-06T12:29:50.608Z,15.13
2023-02-06T12:30:50.861Z,16.01
2023-02-06T12:31:50.647Z,13.82
2023-02-06T12:32:50.500Z,13.29
2023-02-06T12:33:50.517Z,10.72
2023-02-06T12:34:50.430Z,12.56
2023-02-06T12:35:50.429Z,15.03
2023-02-06T12:36:50.391Z,14.74
2023-02-06T12:37:50.452Z,15.23
2023-02-06T12:38:50.435Z,14.03
2023-02-06T12:39:50.359Z,10.30
2023-02-06T12:40:50.311Z,12.46
2023-02-06T12:41:50.325Z,13.53
2023-02-06T12:42:50.483Z,12.95
2023-02-06T12:43:50.302Z,12.54
2023-02-06T12:44:50.197Z,12.10
2023-02-06T12:45:50.258Z,13.13
2023-02-06T12:46:50.202Z,14.35
2023-02-06T12:47:50.127Z,14.75
2023-02-06T12:48:50.152Z,15.39
2023-02-06T12:49:50.132Z,10.80
2023-02-06T12:50:50.352Z,11.84
2023-02-06T12:51:50.029Z,15.09
2023-02-06T12:52:50.007Z,11.33
2023-02-06T12:53:50.018Z,11.74
2023-02-06T12:54:50.160Z,13.86
2023-02-06T12:55:49.926Z,14.29
2023-02-06T12:56:50.023Z,11.25
2023-02-06T12:57:49.916Z,12.99
2023-02-06T12:58:49.946Z,13.79
2023-02-06T12:59:57.946Z,11.89
2023-02-06T13:00:49.822Z,10.81
2023-02-06T13:01:49.782Z,13.66
2023-02-06T13:02:49.804Z,12.72
2023-02-06T13:03:49.742Z,8.85
2023-02-06T13:04:49.725Z,9.90
2023-02-06T13:05:49.734Z,15.35
2023-02-06T13:06:49.691Z,12.68
2023-02-06T13:08:49.646Z,11.74
2023-02-06T13:09:49.604Z,13.99
2023-02-06T13:10:49.605Z,13.69
2023-02-06T13:11:49.645Z,10.97
2023-02-06T13:12:49.559Z,11.16
2023-02-06T13:13:49.572Z,12.32
2023-02-06T13:14:49.475Z,14.11
2023-02-06T13:15:49.506Z,11.24
2023-02-06T13:16:49.415Z,13.71
2023-02-06T13:17:49.389Z,13.14
2023-02-06T13:18:49.400Z,12.80
2023-02-06T13:19:49.425Z,12.09
2023-02-06T13:20:49.289Z,11.74
2023-02-06T13:21:49.315Z,10.53
2023-02-06T13:22:49.238Z,11.04
2023-02-06T13:23:49.240Z,10.68
2023-02-06T13:24:49.228Z,12.03
2023-02-06T13:25:49.134Z,10.20
2023-02-06T13:26:49.198Z,11.84
2023-02-06T13:27:49.207Z,9.33
2023-02-06T13:28:49.080Z,8.57
2023-02-06T13:29:49.047Z,9.20
2023-02-06T13:30:49.117Z,12.25
2023-02-06T13:31:49.392Z,10.70
2023-02-06T13:32:48.971Z,12.40
2023-02-06T13:33:48.966Z,10.26
2023-02-06T13:34:48.885Z,11.13
2023-02-06T13:35:48.848Z,8.79
2023-02-06T13:36:48.834Z,7.27
2023-02-06T13:37:48.813Z,9.67
2023-02-06T13:38:48.768Z,11.61
2023-02-06T13:39:48.772Z,12.19
2023-02-06T13:40:48.736Z,12.85
2023-02-06T13:41:48.714Z,11.96
2023-02-06T13:42:48.669Z,10.41
2023-02-06T13:43:48.641Z,12.00
2023-02-06T13:44:48.616Z,11.93
2023-02-06T13:45:48.576Z,10.97
2023-02-06T13:46:48.544Z,10.74
2023-02-06T13:47:48.511Z,11.26
2023-02-06T13:48:48.528Z,10.46
2023-02-06T13:49:48.514Z,10.27
2023-02-06T13:50:48.465Z,11.03
2023-02-06T13:51:49.305Z,11.56
2023-02-06T13:52:48.388Z,12.15
2023-02-06T13:53:48.380Z,11.17
2023-02-06T13:54:48.384Z,10.58
2023-02-06T13:55:48.296Z,11.68
2023-02-06T13:56:48.264Z,10.39
2023-02-06T13:57:48.229Z,10.08
2023-02-06T13:58:48.207Z,11.53
2023-02-06T13:59:48.221Z,10.17
2023-02-06T14:00:48.137Z,11.93
2023-02-06T14:01:48.154Z,8.50
2023-02-06T14:02:48.130Z,10.38
2023-02-06T14:03:48.105Z,8.80
2023-02-06T14:04:48.057Z,11.31
2023-02-06T14:05:48.020Z,8.06
2023-02-06T14:06:47.999Z,9.56
2023-02-06T14:07:47.963Z,7.72
2023-02-06T14:08:47.983Z,7.81
2023-02-06T14:09:47.942Z,8.50
2023-02-06T14:10:47.920Z,9.23
2023-02-06T14:11:47.900Z,8.08
2023-02-06T14:12:47.866Z,8.44
2023-02-06T14:16:48.326Z,6.89
2023-02-06T14:24:50.321Z,7.04
2023-02-06T15:26:00.971Z,5.56
2023-02-06T18:26:42.342Z,3.19
2023-02-06T18:27:42.340Z,2.50
2023-02-06T18:28:42.497Z,2.99
2023-02-06T18:29:49.369Z,2.11
2023-02-06T18:30:43.197Z,2.09
2023-02-06T18:31:42.194Z,2.48
2023-02-06T18:32:42.160Z,2.39
2023-02-06T18:33:42.123Z,2.34
2023-02-06T18:34:42.080Z,2.49
2023-02-06T18:35:42.090Z,3.44
2023-02-06T18:36:42.053Z,2.56
2023-02-06T18:37:42.075Z,1.93
2023-02-06T18:38:42.004Z,2.34
2023-02-06T18:39:42.041Z,2.08
2023-02-06T18:40:41.989Z,2.24
2023-02-06T18:41:41.937Z,2.67
2023-02-06T18:42:41.928Z,2.21
2023-02-06T18:43:41.893Z,2.80
2023-02-06T18:44:41.906Z,1.88
2023-02-06T18:45:41.849Z,2.70
2023-02-06T18:46:41.889Z,2.49
2023-02-06T18:47:41.790Z,2.87
2023-02-06T18:48:41.784Z,2.21
2023-02-06T18:49:41.750Z,2.93
2023-02-06T18:50:41.729Z,2.58
2023-02-06T18:51:41.709Z,2.62
2023-02-06T18:52:41.684Z,2.73
2023-02-06T18:53:41.660Z,2.30
2023-02-06T18:54:41.664Z,3.11
2023-02-06T18:55:41.601Z,2.50
2023-02-06T18:56:41.599Z,3.44
2023-02-06T18:57:41.589Z,2.45
2023-02-06T18:58:41.535Z,2.40
2023-02-06T18:59:41.529Z,3.34
2023-02-06T19:00:41.541Z,2.41
2023-02-06T19:01:41.473Z,2.35
2023-02-06T19:02:41.429Z,2.53
2023-02-06T19:03:41.422Z,2.33
2023-02-06T19:04:41.422Z,1.77
2023-02-06T19:05:41.362Z,2.13
2023-02-06T19:06:41.337Z,1.88
2023-02-06T19:07:41.334Z,2.49
2023-02-06T19:08:44.064Z,1.83
2023-02-06T19:09:41.296Z,1.82
2023-02-06T19:10:41.233Z,1.61
2023-02-06T19:11:41.230Z,2.80
2023-02-06T19:12:41.204Z,2.82
2023-02-06T19:13:41.178Z,2.14
2023-02-06T19:14:41.199Z,2.27
2023-02-06T19:15:41.110Z,1.88
2023-02-06T19:16:41.097Z,2.67
2023-02-06T19:17:41.105Z,2.39
2023-02-06T19:18:42.192Z,1.70
2023-02-06T19:19:41.030Z,1.72
2023-02-06T19:20:41.006Z,2.15
2023-02-06T19:21:40.988Z,2.74
2023-02-06T19:22:40.936Z,2.56
2023-02-06T19:23:40.918Z,1.80
2023-02-06T19:24:40.893Z,1.95
2023-02-06T19:25:40.863Z,1.96
2023-02-06T19:26:40.833Z,1.98
2023-02-06T19:27:40.798Z,2.22
2023-02-06T19:28:40.751Z,2.03
2023-02-06T19:29:40.788Z,2.11
2023-02-06T19:30:40.747Z,2.14
2023-02-06T19:31:40.798Z,2.46
2023-02-06T19:32:40.679Z,1.73
2023-02-06T19:33:40.702Z,1.76
2023-02-06T19:34:40.608Z,2.26
2023-02-06T19:35:40.613Z,2.18
2023-02-06T19:36:40.539Z,1.97
2023-02-06T19:37:40.511Z,1.99
2023-02-06T19:38:40.528Z,2.38
2023-02-06T19:39:40.491Z,2.07
2023-02-06T19:40:40.454Z,2.48
2023-02-06T19:41:40.422Z,2.26
2023-02-06T19:42:40.395Z,2.58
2023-02-06T19:43:40.347Z,2.72
2023-02-06T19:44:40.396Z,1.70
2023-02-06T19:45:40.409Z,2.23
2023-02-06T19:46:40.261Z,2.00
2023-02-06T19:47:40.242Z,1.91
2023-02-06T19:48:40.229Z,2.20
2023-02-06T19:49:40.175Z,2.46
2023-02-06T19:50:40.195Z,2.17
2023-02-06T19:51:40.131Z,2.30
2023-02-06T19:52:40.106Z,1.64
2023-02-06T19:53:40.092Z,1.75
2023-02-06T19:54:40.101Z,2.04
2023-02-06T19:55:40.065Z,2.00
2023-02-06T19:56:40.030Z,1.76
2023-02-06T19:57:39.995Z,2.08
2023-02-06T19:58:39.979Z,2.30
2023-02-06T19:59:39.932Z,2.08
2023-02-06T20:00:40.031Z,2.06
2023-02-06T20:01:39.916Z,1.85
2023-02-06T20:02:39.868Z,1.78
2023-02-06T20:03:39.909Z,1.95
2023-02-06T20:04:39.859Z,1.84
2023-02-06T20:05:39.806Z,2.53
2023-02-06T20:06:39.768Z,2.21
2023-02-06T20:07:39.725Z,2.12
2023-02-06T20:08:39.689Z,2.20
2023-02-06T20:09:39.664Z,2.24
2023-02-06T20:10:39.687Z,1.85
2023-02-06T20:11:39.608Z,2.27
2023-02-06T20:12:39.612Z,1.38
2023-02-06T20:13:39.586Z,1.86
2023-02-06T20:14:39.542Z,2.05
2023-02-06T20:15:39.566Z,1.70
2023-02-06T20:16:39.559Z,2.11
2023-02-06T20:17:39.487Z,1.75
2023-02-06T20:18:39.443Z,2.19
2023-02-06T20:19:39.448Z,1.95
2023-02-06T20:20:39.433Z,1.66
2023-02-06T20:21:39.582Z,1.95
2023-02-06T20:22:39.340Z,1.90
2023-02-06T20:23:39.372Z,1.49
2023-02-06T20:24:39.336Z,2.11
2023-02-06T20:25:39.292Z,1.85
2023-02-06T20:26:39.305Z,1.99
2023-02-06T20:27:39.281Z,2.42
2023-02-06T20:28:39.215Z,1.97
2023-02-06T20:29:39.217Z,1.83
2023-02-06T20:30:39.593Z,2.18
2023-02-06T20:31:39.289Z,2.28
2023-02-06T20:32:39.132Z,1.69
2023-02-06T20:33:39.128Z,1.72
2023-02-06T20:34:39.095Z,1.66
2023-02-06T20:35:39.068Z,1.95
2023-02-06T20:36:39.095Z,1.80
2023-02-06T20:37:39.019Z,2.22
2023-02-06T20:38:38.976Z,1.66
2023-02-06T20:39:38.961Z,1.83
2023-02-06T20:40:39.240Z,2.15
2023-02-06T20:41:38.893Z,1.57
2023-02-06T20:42:38.856Z,1.68
2023-02-06T20:43:38.830Z,2.05
2023-02-06T20:44:38.798Z,2.12
2023-02-06T20:45:38.799Z,2.41
2023-02-06T20:46:38.758Z,1.64
2023-02-06T20:47:38.728Z,1.59
2023-02-06T20:48:38.708Z,1.90
2023-02-06T20:49:38.656Z,1.93
2023-02-06T20:50:38.954Z,1.92
2023-02-06T20:51:38.648Z,1.92
2023-02-06T20:52:38.607Z,1.85
2023-02-06T20:53:38.553Z,1.45
2023-02-06T20:54:38.520Z,1.52
2023-02-06T20:55:38.498Z,2.17
2023-02-06T20:56:38.540Z,1.64
2023-02-06T20:57:38.487Z,1.99
2023-02-06T20:58:38.436Z,1.44
2023-02-06T20:59:38.392Z,1.60
2023-02-06T21:00:38.540Z,1.81
2023-02-06T21:01:38.361Z,2.07
2023-02-06T21:02:38.328Z,1.44
2023-02-06T21:03:38.268Z,1.88
2023-02-06T21:04:38.242Z,1.82
2023-02-06T21:05:38.222Z,1.85
2023-02-06T21:06:38.210Z,1.52
2023-02-06T21:07:38.184Z,1.99
2023-02-06T21:08:38.140Z,1.91
2023-02-06T21:09:38.127Z,2.06
2023-02-06T21:10:38.275Z,1.56
2023-02-06T21:11:38.055Z,1.73
2023-02-06T21:12:38.043Z,1.10
2023-02-06T21:13:38.050Z,1.87
2023-02-06T21:14:37.976Z,1.98
2023-02-06T21:15:37.998Z,1.24
2023-02-06T21:16:38.947Z,2.03
2023-02-06T21:17:37.912Z,1.87
2023-02-06T21:18:37.887Z,1.68
2023-02-06T21:19:37.852Z,1.72
2023-02-06T21:20:38.049Z,1.60
2023-02-06T21:21:37.829Z,1.24
2023-02-06T21:22:37.809Z,1.50
2023-02-06T21:23:37.739Z,1.52
2023-02-06T21:24:37.707Z,1.96
2023-02-06T21:25:37.686Z,1.27
2023-02-06T21:26:37.674Z,1.66
2023-02-06T21:27:37.638Z,1.46
2023-02-06T21:28:37.578Z,1.73
2023-02-06T21:29:37.568Z,1.56
2023-02-06T21:30:38.096Z,1.76
2023-02-06T21:31:38.649Z,1.74
2023-02-06T21:32:37.478Z,1.36
2023-02-06T21:33:37.431Z,1.51
2023-02-06T21:34:37.395Z,1.84
2023-02-06T21:35:37.377Z,1.82
2023-02-06T21:36:37.363Z,1.94
2023-02-06T21:37:37.333Z,1.86
2023-02-06T21:38:37.292Z,2.09
2023-02-06T21:39:37.269Z,1.61
2023-02-06T21:40:37.244Z,1.83
2023-02-06T21:41:37.204Z,1.79
2023-02-06T21:42:37.226Z,2.34
2023-02-06T21:43:37.207Z,1.89
2023-02-06T21:44:37.137Z,1.73
2023-02-06T21:45:37.389Z,1.78
2023-02-06T21:46:37.132Z,1.78
2023-02-06T21:47:37.115Z,1.67
2023-02-06T21:48:37.062Z,1.63
2023-02-06T21:49:37.063Z,1.78
2023-02-06T21:50:37.010Z,1.90
2023-02-06T21:51:36.981Z,1.83
2023-02-06T21:52:36.994Z,2.06
2023-02-06T21:53:36.956Z,1.76
2023-02-06T21:54:36.911Z,1.97
2023-02-06T21:55:37.141Z,1.19
2023-02-06T21:56:36.877Z,1.87
2023-02-06T21:57:36.877Z,1.89
2023-02-06T21:58:36.853Z,2.39
2023-02-06T21:59:36.822Z,1.89
2023-02-06T22:00:36.785Z,1.76
2023-02-06T22:01:36.823Z,1.97
2023-02-06T22:02:36.768Z,2.17
2023-02-06T22:03:36.755Z,1.86
2023-02-06T22:04:36.714Z,1.49
2023-02-06T22:05:36.984Z,1.83
2023-02-06T22:06:36.701Z,1.98
2023-02-06T22:07:36.666Z,1.52
2023-02-06T22:08:36.636Z,1.63
2023-02-06T22:09:36.617Z,2.04
2023-02-06T22:10:36.586Z,1.96
2023-02-06T22:11:36.581Z,2.30
2023-02-06T22:12:36.558Z,1.71
2023-02-06T22:13:36.555Z,2.58
2023-02-06T22:14:36.514Z,2.16
2023-02-06T22:15:36.779Z,2.24
2023-02-06T22:16:36.462Z,1.83
2023-02-06T22:17:36.451Z,1.77
2023-02-06T22:18:36.451Z,1.41
2023-02-06T22:19:36.450Z,2.73
2023-02-06T22:20:36.397Z,2.17
2023-02-06T22:21:36.389Z,2.23
2023-02-06T22:22:36.389Z,1.95
2023-02-06T22:23:36.351Z,2.19
2023-02-06T22:24:36.301Z,1.84
2023-02-06T22:25:36.707Z,2.21
2023-02-06T22:26:36.271Z,1.68
2023-02-06T22:27:36.286Z,1.76
2023-02-06T22:28:36.246Z,2.06
2023-02-06T22:29:36.199Z,1.86
2023-02-06T22:30:36.249Z,2.62
2023-02-06T22:31:36.266Z,2.06
2023-02-06T22:32:36.149Z,2.16
2023-02-06T22:33:36.147Z,1.80
2023-02-06T22:34:36.138Z,2.05
2023-02-06T22:35:36.446Z,2.09
2023-02-06T22:36:36.077Z,2.00
2023-02-06T22:37:36.039Z,1.83
2023-02-06T22:38:36.051Z,1.84
2023-02-06T22:39:35.988Z,2.26
2023-02-06T22:40:35.959Z,1.80
2023-02-06T22:41:35.962Z,2.11
2023-02-06T22:42:35.925Z,2.55
2023-02-06T22:43:35.891Z,2.48
2023-02-06T22:44:35.872Z,1.99
2023-02-06T22:45:36.084Z,1.67
2023-02-06T22:46:35.846Z,2.46
2023-02-06T22:47:35.814Z,1.77
2023-02-06T22:48:35.802Z,2.12
2023-02-06T22:49:35.754Z,1.60
2023-02-06T22:50:35.722Z,1.80
2023-02-06T22:51:35.703Z,2.17
2023-02-06T22:52:35.661Z,2.11
2023-02-06T22:53:35.682Z,1.91
2023-02-06T22:54:35.628Z,1.48
2023-02-06T22:55:35.899Z,2.15
2023-02-06T22:56:35.640Z,2.05
2023-02-06T22:57:35.614Z,2.18
2023-02-06T22:58:35.558Z,1.85
2023-02-06T22:59:35.566Z,1.75
2023-02-06T23:00:35.677Z,2.77
2023-02-06T23:01:36.478Z,2.02
2023-02-06T23:02:35.589Z,2.82
2023-02-06T23:03:35.501Z,2.23
2023-02-06T23:04:35.485Z,2.35
2023-02-06T23:05:35.695Z,2.04
2023-02-06T23:06:35.522Z,2.42
2023-02-06T23:07:35.981Z,2.11
2023-02-06T23:08:35.476Z,1.86
2023-02-06T23:09:35.435Z,1.61
2023-02-06T23:10:35.337Z,1.66
2023-02-06T23:11:35.355Z,2.32
2023-02-06T23:12:35.314Z,2.60
2023-02-06T23:13:35.299Z,2.02
2023-02-06T23:14:35.291Z,1.77
2023-02-06T23:15:35.524Z,2.65
2023-02-06T23:16:35.348Z,1.87
2023-02-06T23:17:35.301Z,2.07
2023-02-06T23:18:35.225Z,1.73
2023-02-06T23:19:35.238Z,1.67
2023-02-06T23:20:35.159Z,2.00
2023-02-06T23:21:35.148Z,2.56
2023-02-06T23:22:35.098Z,2.31
2023-02-06T23:23:35.172Z,1.54
2023-02-06T23:24:35.091Z,1.64
2023-02-06T23:25:35.144Z,1.65
2023-02-06T23:26:35.018Z,2.00
2023-02-06T23:27:35.036Z,1.57
2023-02-06T23:28:34.999Z,2.43
2023-02-06T23:29:34.974Z,2.24
2023-02-06T23:30:34.955Z,2.11
2023-02-06T23:31:34.983Z,2.17
2023-02-06T23:32:34.911Z,2.16
2023-02-06T23:33:34.876Z,2.45
2023-02-06T23:34:34.865Z,2.40
2023-02-06T23:35:34.886Z,1.88
2023-02-06T23:36:35.484Z,2.35
2023-02-06T23:37:34.803Z,2.61
2023-02-06T23:38:34.792Z,2.15
2023-02-06T23:39:34.799Z,1.98
2023-02-06T23:40:34.765Z,1.56
2023-02-06T23:41:34.725Z,2.17
2023-02-06T23:42:34.747Z,2.20
2023-02-06T23:43:34.693Z,2.41
2023-02-06T23:44:34.738Z,1.84
2023-02-06T23:45:34.701Z,2.00
2023-02-06T23:46:34.635Z,2.13
2023-02-06T23:47:34.641Z,2.31
2023-02-06T23:48:34.615Z,2.48
2023-02-06T23:49:34.608Z,2.14
2023-02-06T23:50:35.005Z,1.97
2023-02-06T23:51:34.597Z,2.47
2023-02-06T23:52:34.526Z,1.60
2023-02-06T23:53:34.539Z,2.60
2023-02-06T23:54:34.487Z,2.12
2023-02-06T23:55:34.562Z,2.57
2023-02-06T23:56:34.462Z,2.34
2023-02-06T23:57:34.459Z,2.05
2023-02-06T23:58:34.436Z,2.06
2023-02-06T23:59:34.404Z,2.14
